Nearby METAR Reports

 

LBSF - Sofia (observato, Bulgaria
Distance from station: ЮИ 5km
Актуализирано: 09/03/2021 06:30
Тихо и ясно
Тихо и ясно
 Вятър от ИЮИ
Вятър: ИЮИ 6 km/h
Температура: -4°C
Точка на оросяване: -7°C
Влажност: 80%
Барометър: 1018 hPa
Обобщение: Тихо и ясно
Visibility: greater than 10 km
2021/03/09 04:30 LBSF 090430Z 11003KT CAVOK M04/M07 Q1018 NOSIG